createdAt,value
2023-03-30T00:00:23.160Z,9.51
2023-03-30T00:02:53.932Z,9.54
2023-03-30T00:05:23.898Z,9.48
2023-03-30T00:07:52.099Z,9.45
2023-03-30T00:10:20.468Z,9.41
2023-03-30T00:12:52.816Z,9.40
2023-03-30T00:15:23.701Z,9.51
2023-03-30T00:17:54.954Z,9.39
2023-03-30T00:20:24.184Z,9.52
2023-03-30T00:22:52.392Z,9.66
2023-03-30T00:25:23.233Z,9.58
2023-03-30T00:27:51.484Z,9.75
2023-03-30T00:30:20.749Z,9.50
2023-03-30T00:32:49.027Z,9.66
2023-03-30T00:35:19.617Z,9.70
2023-03-30T00:37:49.445Z,9.65
2023-03-30T00:40:21.590Z,9.80
2023-03-30T00:42:50.353Z,9.76
2023-03-30T00:45:26.359Z,9.86
2023-03-30T00:48:01.389Z,9.91
2023-03-30T00:50:37.360Z,9.79
2023-03-30T00:53:12.313Z,9.77
2023-03-30T00:55:41.889Z,9.94
2023-03-30T00:58:10.879Z,10.03
2023-03-30T01:00:40.473Z,10.11
2023-03-30T01:03:17.522Z,10.22
2023-03-30T01:05:48.894Z,10.20
2023-03-30T01:08:18.370Z,10.36
2023-03-30T01:10:48.004Z,10.38
2023-03-30T01:13:16.569Z,10.50
2023-03-30T01:16:05.408Z,10.49
2023-03-30T01:18:47.742Z,10.74
2023-03-30T01:22:00.229Z,10.86
2023-03-30T01:25:28.680Z,10.76
2023-03-30T01:28:28.808Z,10.81
2023-03-30T01:31:28.288Z,10.80
2023-03-30T01:34:35.989Z,10.78
2023-03-30T01:37:45.921Z,9.80
2023-03-30T01:40:18.112Z,10.76
2023-03-30T01:42:57.828Z,10.83
2023-03-30T01:45:37.544Z,10.78
2023-03-30T01:48:12.370Z,10.80
2023-03-30T01:50:43.704Z,10.68
2023-03-30T01:53:18.303Z,10.71
2023-03-30T01:55:54.070Z,10.42
2023-03-30T01:58:30.103Z,10.73
2023-03-30T02:00:59.997Z,10.51
2023-03-30T02:03:34.112Z,10.71
2023-03-30T02:06:09.716Z,10.70
2023-03-30T02:08:39.468Z,10.68
2023-03-30T02:11:09.252Z,10.14
2023-03-30T02:13:39.117Z,10.61
2023-03-30T02:16:13.683Z,10.66
2023-03-30T02:18:46.471Z,10.41
2023-03-30T02:21:15.578Z,10.36
2023-03-30T02:23:46.314Z,10.35
2023-03-30T02:26:16.084Z,10.28
2023-03-30T02:28:46.265Z,10.29
2023-03-30T02:31:16.915Z,10.34
2023-03-30T02:34:05.530Z,10.42
2023-03-30T02:37:11.702Z,10.50
2023-03-30T02:39:56.638Z,10.57
2023-03-30T02:43:14.837Z,10.58
2023-03-30T02:45:53.986Z,10.68
2023-03-30T02:48:37.661Z,10.62
2023-03-30T02:51:24.751Z,10.68
2023-03-30T02:54:27.507Z,10.57
2023-03-30T02:57:23.605Z,10.45
2023-03-30T02:59:59.264Z,10.60
2023-03-30T03:02:32.425Z,10.47
2023-03-30T03:05:14.865Z,10.35
2023-03-30T03:08:06.175Z,10.43
2023-03-30T03:10:36.964Z,10.45
2023-03-30T03:13:05.929Z,10.06
2023-03-30T03:15:35.658Z,10.50
2023-03-30T03:18:10.570Z,10.63
2023-03-30T03:20:38.766Z,10.53
2023-03-30T03:23:07.731Z,10.53
2023-03-30T03:25:48.389Z,10.57
2023-03-30T03:28:18.703Z,10.57
2023-03-30T03:30:51.683Z,10.58
2023-03-30T03:33:23.345Z,10.65
2023-03-30T03:36:00.480Z,10.51
2023-03-30T03:38:30.964Z,10.53
2023-03-30T03:41:00.931Z,10.63
2023-03-30T03:43:31.241Z,10.50
2023-03-30T03:46:00.851Z,10.60
2023-03-30T03:48:29.304Z,10.72
2023-03-30T03:51:00.106Z,10.69
2023-03-30T03:53:32.740Z,10.76
2023-03-30T03:56:05.368Z,10.33
2023-03-30T03:58:34.729Z,10.85
2023-03-30T04:01:04.538Z,10.87
2023-03-30T04:03:33.133Z,11.01
2023-03-30T04:06:04.064Z,10.94
2023-03-30T04:08:33.355Z,10.99
2023-03-30T04:11:12.280Z,10.73
2023-03-30T04:13:59.064Z,10.86
2023-03-30T04:16:49.248Z,10.68
2023-03-30T04:19:25.404Z,10.80
2023-03-30T04:22:24.269Z,10.70
2023-03-30T04:25:22.709Z,10.80
2023-03-30T04:28:11.713Z,10.89
2023-03-30T04:31:01.183Z,10.63
2023-03-30T04:33:52.960Z,10.58
2023-03-30T04:36:43.267Z,10.59
2023-03-30T04:39:30.732Z,10.53
2023-03-30T04:42:15.620Z,10.64
2023-03-30T04:44:51.240Z,10.61
2023-03-30T04:47:36.175Z,10.53
2023-03-30T04:50:14.360Z,10.53
2023-03-30T04:53:01.541Z,10.51
2023-03-30T04:55:50.387Z,10.42
2023-03-30T04:58:38.597Z,10.57
2023-03-30T05:01:24.771Z,10.43
2023-03-30T05:04:10.033Z,10.54
2023-03-30T05:06:58.918Z,10.50
2023-03-30T05:09:46.250Z,10.51
2023-03-30T05:12:40.700Z,10.49
2023-03-30T05:15:35.856Z,10.54
2023-03-30T05:18:25.052Z,10.58
2023-03-30T05:21:10.790Z,10.58
2023-03-30T05:24:02.602Z,10.58
2023-03-30T05:26:50.260Z,10.64
2023-03-30T05:29:45.029Z,10.66
2023-03-30T05:32:28.575Z,10.71
2023-03-30T05:35:26.297Z,10.60
2023-03-30T05:38:20.729Z,10.53
2023-03-30T05:41:09.067Z,10.69
2023-03-30T05:43:56.094Z,10.70
2023-03-30T05:46:36.365Z,10.73
2023-03-30T05:49:25.929Z,10.59
2023-03-30T05:52:14.020Z,10.71
2023-03-30T05:55:01.086Z,10.71
2023-03-30T05:57:46.688Z,10.63
2023-03-30T06:00:48.208Z,10.74
2023-03-30T06:03:50.534Z,10.60
2023-03-30T06:06:18.964Z,10.64
2023-03-30T06:08:51.272Z,10.72
2023-03-30T06:11:22.574Z,10.77
2023-03-30T06:14:05.713Z,10.94
2023-03-30T06:16:35.439Z,10.97
2023-03-30T06:19:04.352Z,11.06
2023-03-30T06:21:32.705Z,11.03
2023-03-30T06:24:18.830Z,11.08
2023-03-30T06:26:48.610Z,11.03
2023-03-30T06:29:19.022Z,11.03
2023-03-30T06:31:48.031Z,11.20
2023-03-30T06:34:36.632Z,11.35
2023-03-30T06:37:08.837Z,11.17
2023-03-30T06:39:38.632Z,11.34
2023-03-30T06:42:08.386Z,11.28
2023-03-30T06:45:03.516Z,11.36
2023-03-30T06:47:33.049Z,11.85
2023-03-30T06:50:01.671Z,11.20
2023-03-30T06:52:48.759Z,11.23
2023-03-30T06:55:18.506Z,11.30
2023-03-30T06:57:47.850Z,11.30
2023-03-30T07:00:18.957Z,11.35
2023-03-30T07:03:06.808Z,11.38
2023-03-30T07:05:53.095Z,11.38
2023-03-30T07:08:50.657Z,11.44
2023-03-30T07:11:26.246Z,11.47
2023-03-30T07:13:56.243Z,11.51
2023-03-30T07:16:26.177Z,11.52
2023-03-30T07:18:54.850Z,11.51
2023-03-30T07:21:26.255Z,11.60
2023-03-30T07:23:54.547Z,11.52
2023-03-30T07:26:36.435Z,11.45
2023-03-30T07:29:09.088Z,11.56
2023-03-30T07:31:41.424Z,11.53
2023-03-30T07:34:12.311Z,11.50
2023-03-30T07:36:46.026Z,11.63
2023-03-30T07:39:14.324Z,11.63
2023-03-30T07:41:45.582Z,11.55
2023-03-30T07:44:15.275Z,11.58
2023-03-30T07:46:45.063Z,11.56
2023-03-30T07:49:19.913Z,11.53
2023-03-30T07:51:48.402Z,11.55
2023-03-30T07:54:22.962Z,11.33
2023-03-30T07:57:12.588Z,11.25
2023-03-30T07:59:41.214Z,11.21
2023-03-30T08:02:21.122Z,11.32
2023-03-30T08:04:55.131Z,11.34
2023-03-30T08:07:30.262Z,11.26
2023-03-30T08:10:09.888Z,11.05
2023-03-30T08:12:38.612Z,11.05
2023-03-30T08:15:09.373Z,11.00
2023-03-30T08:17:39.398Z,11.16
2023-03-30T08:20:11.756Z,11.03
2023-03-30T08:22:40.320Z,11.08
2023-03-30T08:25:09.607Z,11.03
2023-03-30T08:27:37.780Z,10.93
2023-03-30T08:30:07.811Z,10.96
2023-03-30T08:32:36.088Z,10.93
2023-03-30T08:35:07.195Z,11.03
2023-03-30T08:37:35.592Z,11.14
2023-03-30T08:40:06.465Z,11.07
2023-03-30T08:42:55.725Z,10.85
2023-03-30T08:45:36.021Z,11.00
2023-03-30T08:48:05.053Z,11.00
2023-03-30T08:50:36.694Z,10.97
2023-03-30T08:53:07.616Z,10.82
2023-03-30T08:55:41.646Z,10.72
2023-03-30T08:58:17.289Z,10.71
2023-03-30T09:00:50.810Z,10.80
2023-03-30T09:03:28.134Z,10.72
2023-03-30T09:06:06.349Z,10.14
2023-03-30T09:08:35.318Z,10.70
2023-03-30T09:11:07.951Z,10.60
2023-03-30T09:13:37.943Z,10.51
2023-03-30T09:16:18.115Z,10.57
2023-03-30T09:18:49.221Z,10.51
2023-03-30T09:21:23.299Z,10.37
2023-03-30T09:23:53.821Z,10.64
2023-03-30T09:26:32.660Z,10.68
2023-03-30T09:29:06.578Z,10.83
2023-03-30T09:31:41.237Z,10.81
2023-03-30T09:34:24.081Z,10.85
2023-03-30T09:36:58.964Z,10.78
2023-03-30T09:39:32.221Z,10.77
2023-03-30T09:42:17.977Z,10.31
2023-03-30T09:44:51.476Z,10.68
2023-03-30T09:47:26.989Z,10.84
2023-03-30T09:50:00.247Z,10.74
2023-03-30T09:52:32.046Z,10.77
2023-03-30T09:55:18.947Z,10.74
2023-03-30T09:57:48.721Z,10.92
2023-03-30T10:00:31.414Z,10.83
2023-03-30T10:03:02.600Z,10.34
2023-03-30T10:05:33.293Z,10.77
2023-03-30T10:08:05.586Z,10.59
2023-03-30T10:10:36.756Z,10.94
2023-03-30T10:13:08.547Z,10.87
2023-03-30T10:15:40.502Z,11.08
2023-03-30T10:18:28.770Z,11.11
2023-03-30T10:21:04.374Z,11.11
2023-03-30T10:23:40.141Z,11.33
2023-03-30T10:26:15.531Z,10.62
2023-03-30T10:28:53.962Z,11.36
2023-03-30T10:31:25.662Z,11.40
2023-03-30T10:33:58.939Z,11.34
2023-03-30T10:36:32.389Z,11.17
2023-03-30T10:39:09.922Z,11.24
2023-03-30T10:41:41.067Z,11.23
2023-03-30T10:44:27.054Z,11.37
2023-03-30T10:47:09.074Z,11.35
2023-03-30T10:49:51.669Z,11.44
2023-03-30T10:52:28.289Z,11.45
2023-03-30T10:55:09.351Z,11.37
2023-03-30T10:57:51.656Z,11.61
2023-03-30T11:00:54.537Z,11.38
2023-03-30T11:03:27.372Z,11.43
2023-03-30T11:06:00.698Z,11.49
2023-03-30T11:08:33.962Z,11.42
2023-03-30T11:11:05.515Z,11.27
2023-03-30T11:13:38.285Z,11.39
2023-03-30T11:16:12.383Z,11.42
2023-03-30T11:18:48.476Z,11.47
2023-03-30T11:21:23.008Z,11.45
2023-03-30T11:23:55.186Z,11.41
2023-03-30T11:26:33.357Z,11.54
2023-03-30T11:29:10.806Z,11.55
2023-03-30T11:31:49.908Z,11.60
2023-03-30T11:34:29.362Z,11.71
2023-03-30T11:37:05.274Z,11.60
2023-03-30T11:39:38.302Z,11.68
2023-03-30T11:42:18.375Z,11.65
2023-03-30T11:44:46.708Z,11.92
2023-03-30T11:47:42.378Z,12.25
2023-03-30T11:50:25.547Z,12.37
2023-03-30T11:53:11.274Z,12.65
2023-03-30T11:56:03.071Z,13.68
2023-03-30T11:58:38.016Z,13.27
2023-03-30T12:01:26.382Z,13.45
2023-03-30T12:04:31.203Z,13.44
2023-03-30T12:07:02.432Z,13.56
2023-03-30T12:09:35.782Z,13.43
2023-03-30T12:12:12.080Z,13.42
2023-03-30T12:15:03.729Z,13.35
2023-03-30T12:17:42.948Z,13.43
2023-03-30T12:20:33.777Z,13.04
2023-03-30T12:23:17.523Z,13.19
2023-03-30T12:26:04.388Z,13.10
2023-03-30T12:29:05.041Z,13.22
2023-03-30T12:32:06.415Z,13.36
2023-03-30T12:34:36.566Z,13.32
2023-03-30T12:37:10.038Z,13.31
2023-03-30T12:39:48.955Z,13.12
2023-03-30T12:42:34.738Z,13.07
2023-03-30T12:45:22.167Z,13.03
2023-03-30T12:48:11.236Z,13.09
2023-03-30T12:50:47.730Z,13.16
2023-03-30T12:53:57.528Z,13.16
2023-03-30T12:56:35.556Z,13.14
2023-03-30T12:59:36.709Z,13.05
2023-03-30T13:02:38.066Z,13.20
2023-03-30T13:05:21.364Z,13.84
2023-03-30T13:07:52.572Z,13.65
2023-03-30T13:10:42.515Z,13.87
2023-03-30T13:13:24.812Z,13.77
2023-03-30T13:15:57.676Z,13.35
2023-03-30T13:19:04.243Z,13.24
2023-03-30T13:22:18.933Z,13.10
2023-03-30T13:25:41.389Z,13.12
2023-03-30T13:28:36.968Z,13.08
2023-03-30T13:31:19.781Z,13.42
2023-03-30T13:33:54.017Z,13.30
2023-03-30T13:36:26.454Z,13.06
2023-03-30T13:39:07.342Z,13.07
2023-03-30T13:41:50.225Z,12.94
2023-03-30T13:44:38.595Z,13.00
2023-03-30T13:47:28.056Z,12.85
2023-03-30T13:50:03.440Z,12.82
2023-03-30T13:52:38.230Z,12.73
2023-03-30T13:55:19.622Z,12.64
2023-03-30T13:57:47.943Z,12.50
2023-03-30T14:00:33.400Z,12.31
2023-03-30T14:03:27.844Z,12.29
2023-03-30T14:09:11.169Z,12.08
2023-03-30T14:11:45.565Z,11.63
2023-03-30T14:14:21.949Z,12.05
2023-03-30T14:16:50.874Z,12.05
2023-03-30T14:19:25.725Z,11.86
2023-03-30T14:21:59.347Z,11.87
2023-03-30T14:24:33.822Z,11.33
2023-03-30T14:27:08.930Z,11.61
2023-03-30T14:29:46.162Z,11.60
2023-03-30T14:32:16.711Z,11.59
2023-03-30T14:34:48.387Z,11.06
2023-03-30T14:37:19.673Z,11.49
2023-03-30T14:39:53.854Z,11.45
2023-03-30T14:42:27.574Z,11.56
2023-03-30T14:44:58.119Z,11.43
2023-03-30T14:47:28.647Z,11.33
2023-03-30T14:49:59.913Z,10.74
2023-03-30T14:52:33.306Z,11.28
2023-03-30T14:55:05.969Z,11.37
2023-03-30T14:57:41.901Z,11.19
2023-03-30T15:00:18.674Z,11.25
2023-03-30T15:02:48.490Z,11.25
2023-03-30T15:05:19.164Z,11.45
2023-03-30T15:07:50.473Z,11.33
2023-03-30T15:10:25.724Z,11.20
2023-03-30T15:12:58.314Z,11.30
2023-03-30T15:15:31.136Z,11.38
2023-03-30T15:18:00.758Z,10.66
2023-03-30T15:20:33.383Z,11.40
2023-03-30T15:23:02.147Z,11.40
2023-03-30T15:25:35.263Z,11.39
2023-03-30T15:28:09.128Z,11.40
2023-03-30T15:30:40.060Z,11.60
2023-03-30T15:33:20.516Z,11.58
2023-03-30T15:35:52.397Z,11.54
2023-03-30T15:38:30.032Z,11.72
2023-03-30T15:40:58.334Z,11.85
2023-03-30T15:43:30.991Z,12.38
2023-03-30T15:46:05.441Z,12.60
2023-03-30T15:48:42.882Z,13.14
2023-03-30T15:51:16.649Z,12.72
2023-03-30T15:53:51.318Z,13.58
2023-03-30T15:56:26.726Z,13.44
2023-03-30T15:58:58.473Z,13.50
2023-03-30T16:01:42.404Z,13.64
2023-03-30T16:04:16.952Z,13.71
2023-03-30T16:06:47.501Z,12.73
2023-03-30T16:09:16.499Z,13.56
2023-03-30T16:11:46.334Z,13.45
2023-03-30T16:14:20.063Z,13.68
2023-03-30T16:16:48.691Z,13.07
2023-03-30T16:19:20.851Z,13.81
2023-03-30T16:21:49.717Z,13.87
2023-03-30T16:24:17.921Z,14.01
2023-03-30T16:26:46.791Z,14.07
2023-03-30T16:29:21.624Z,14.17
2023-03-30T16:31:50.582Z,14.08
2023-03-30T16:34:19.030Z,14.14
2023-03-30T16:36:48.069Z,13.85
2023-03-30T16:39:19.694Z,13.31
2023-03-30T16:41:48.453Z,13.78
2023-03-30T16:44:19.258Z,13.09
2023-03-30T16:46:48.180Z,13.63
2023-03-30T16:49:21.522Z,13.72
2023-03-30T16:51:51.333Z,13.11
2023-03-30T16:54:30.307Z,13.96
2023-03-30T16:57:00.294Z,13.66
2023-03-30T16:59:32.202Z,13.53
2023-03-30T17:02:02.564Z,13.55
2023-03-30T17:04:30.912Z,13.46
2023-03-30T17:06:59.161Z,13.06
2023-03-30T17:09:27.505Z,13.25
2023-03-30T17:11:55.769Z,13.04
2023-03-30T17:14:24.376Z,12.80
2023-03-30T17:16:54.066Z,12.85
2023-03-30T17:19:22.558Z,12.71
2023-03-30T17:21:50.931Z,12.50
2023-03-30T17:24:20.129Z,12.37
2023-03-30T17:26:48.462Z,12.12
2023-03-30T17:29:16.772Z,12.05
2023-03-30T17:31:46.356Z,12.01
2023-03-30T17:34:16.420Z,12.02
2023-03-30T17:36:44.718Z,11.96
2023-03-30T17:39:15.882Z,11.85
2023-03-30T17:41:44.232Z,11.92
2023-03-30T17:44:13.464Z,11.83
2023-03-30T17:46:43.057Z,11.70
2023-03-30T17:49:18.123Z,11.05
2023-03-30T17:51:47.153Z,11.56
2023-03-30T17:54:15.629Z,11.44
2023-03-30T17:56:44.062Z,11.46
2023-03-30T17:59:12.619Z,11.36
2023-03-30T18:01:41.090Z,11.38
2023-03-30T18:04:13.989Z,11.24
2023-03-30T18:06:53.554Z,11.24
2023-03-30T18:09:21.792Z,11.05
2023-03-30T18:11:50.018Z,11.02
2023-03-30T18:14:18.209Z,11.14
2023-03-30T18:16:49.987Z,11.01
2023-03-30T18:19:19.261Z,10.92
2023-03-30T18:21:47.515Z,11.02
2023-03-30T18:24:17.064Z,10.90
2023-03-30T18:26:45.862Z,10.92
2023-03-30T18:29:20.336Z,10.24
2023-03-30T18:31:49.418Z,10.93
2023-03-30T18:34:19.570Z,10.90
2023-03-30T18:36:47.851Z,10.83
2023-03-30T18:39:21.465Z,10.77
2023-03-30T18:41:49.748Z,10.79
2023-03-30T18:44:18.079Z,10.76
2023-03-30T18:46:50.665Z,10.70
2023-03-30T18:49:22.843Z,10.79
2023-03-30T18:51:51.903Z,10.85
2023-03-30T18:54:21.577Z,10.66
2023-03-30T18:56:49.996Z,10.36
2023-03-30T18:59:22.933Z,10.69
2023-03-30T19:01:52.237Z,10.51
2023-03-30T19:04:21.312Z,10.60
2023-03-30T19:06:50.281Z,10.80
2023-03-30T19:09:18.524Z,10.70
2023-03-30T19:11:48.526Z,10.56
2023-03-30T19:14:17.065Z,10.71
2023-03-30T19:16:45.259Z,10.64
2023-03-30T19:19:15.633Z,10.60
2023-03-30T19:21:46.155Z,10.46
2023-03-30T19:24:14.427Z,10.48
2023-03-30T19:26:42.674Z,10.61
2023-03-30T19:29:12.941Z,10.57
2023-03-30T19:31:41.223Z,10.38
2023-03-30T19:34:09.534Z,10.51
2023-03-30T19:36:37.765Z,10.39
2023-03-30T19:39:06.101Z,10.37
2023-03-30T19:41:34.433Z,10.26
2023-03-30T19:44:02.636Z,10.40
2023-03-30T19:46:32.268Z,10.33
2023-03-30T19:49:00.763Z,10.34
2023-03-30T19:51:28.956Z,10.26
2023-03-30T19:53:57.738Z,10.33
2023-03-30T19:56:26.750Z,10.18
2023-03-30T19:58:54.985Z,10.18
2023-03-30T20:01:50.407Z,10.05
2023-03-30T20:04:18.756Z,10.16
2023-03-30T20:06:47.034Z,10.02
2023-03-30T20:09:16.018Z,10.01
2023-03-30T20:11:46.567Z,9.98
2023-03-30T20:14:14.889Z,9.81
2023-03-30T20:16:43.494Z,9.95
2023-03-30T20:19:28.573Z,9.96
2023-03-30T20:21:58.199Z,9.93
2023-03-30T20:24:27.052Z,9.49
2023-03-30T20:26:55.389Z,9.90
2023-03-30T20:29:23.696Z,9.87
2023-03-30T20:31:51.976Z,9.95
2023-03-30T20:34:21.614Z,10.02
2023-03-30T20:36:49.951Z,9.85
2023-03-30T20:39:21.690Z,9.84
2023-03-30T20:41:53.967Z,9.80
2023-03-30T20:44:30.438Z,9.71
2023-03-30T20:46:59.530Z,9.41
2023-03-30T20:49:29.671Z,9.53
2023-03-30T20:52:05.624Z,9.46
2023-03-30T20:54:33.758Z,9.25
2023-03-30T20:57:02.032Z,9.26
2023-03-30T20:59:30.574Z,9.18
2023-03-30T21:01:59.181Z,8.97
2023-03-30T21:04:29.048Z,8.87
2023-03-30T21:06:57.309Z,8.71
2023-03-30T21:09:26.453Z,8.65
2023-03-30T21:11:54.764Z,8.54
2023-03-30T21:14:25.682Z,8.58
2023-03-30T21:16:55.724Z,8.64
2023-03-30T21:19:26.259Z,8.74
2023-03-30T21:21:56.598Z,8.71
2023-03-30T21:24:24.993Z,8.61
2023-03-30T21:26:53.565Z,8.83
2023-03-30T21:29:23.030Z,8.89
2023-03-30T21:31:52.090Z,9.00
2023-03-30T21:34:22.218Z,8.95
2023-03-30T21:36:52.293Z,9.13
2023-03-30T21:39:23.923Z,9.16
2023-03-30T21:41:53.075Z,9.30
2023-03-30T21:44:21.632Z,9.31
2023-03-30T21:46:49.986Z,9.37
2023-03-30T21:49:18.384Z,9.17
2023-03-30T21:51:47.453Z,9.14
2023-03-30T21:54:19.723Z,9.19
2023-03-30T21:56:51.165Z,9.06
2023-03-30T21:59:20.216Z,9.01
2023-03-30T22:04:45.056Z,9.02
2023-03-30T22:07:14.926Z,9.12
2023-03-30T22:09:44.495Z,9.06
2023-03-30T22:12:17.996Z,8.99
2023-03-30T22:14:47.292Z,8.69
2023-03-30T22:17:18.726Z,8.57
2023-03-30T22:19:52.058Z,8.59
2023-03-30T22:22:21.204Z,8.62
2023-03-30T22:24:52.414Z,8.52
2023-03-30T22:27:22.909Z,8.48
2023-03-30T22:29:51.927Z,8.53
2023-03-30T22:32:22.129Z,8.52
2023-03-30T22:34:51.362Z,8.40
2023-03-30T22:37:26.998Z,8.38
2023-03-30T22:39:56.155Z,8.14
2023-03-30T22:42:26.661Z,8.27
2023-03-30T22:44:55.744Z,8.09
2023-03-30T22:47:29.312Z,8.02
2023-03-30T22:50:01.097Z,7.97
2023-03-30T22:52:30.563Z,7.91
2023-03-30T22:54:59.451Z,7.94
2023-03-30T22:57:30.500Z,7.97
2023-03-30T22:59:59.126Z,7.94
2023-03-30T23:02:31.756Z,7.91
2023-03-30T23:05:01.561Z,7.77
2023-03-30T23:07:31.295Z,7.82
2023-03-30T23:10:03.471Z,7.71
2023-03-30T23:12:33.089Z,7.75
2023-03-30T23:15:02.417Z,7.58
2023-03-30T23:17:30.790Z,7.53
2023-03-30T23:20:02.343Z,7.46
2023-03-30T23:22:30.607Z,7.55
2023-03-30T23:24:58.858Z,7.46
2023-03-30T23:27:27.230Z,7.42
2023-03-30T23:29:56.828Z,7.45
2023-03-30T23:32:25.119Z,7.53
2023-03-30T23:34:53.275Z,7.50
2023-03-30T23:37:22.362Z,7.27
2023-03-30T23:39:51.547Z,7.42
2023-03-30T23:42:19.744Z,7.35
2023-03-30T23:44:48.372Z,7.49
2023-03-30T23:47:18.012Z,7.44
2023-03-30T23:49:46.263Z,7.38
2023-03-30T23:52:14.610Z,7.38
2023-03-30T23:54:42.806Z,7.37
2023-03-30T23:57:11.361Z,7.38
2023-03-30T23:59:39.642Z,7.31
